Terminal Aerodrome Forecast
Issued by NWS

Current Version | Previous Version | Text Only | Print | Product List | Glossary On
Versions: 1 2 3 4 5 6 7 8 9 10 11 12 13 14 15 16 17
000
FTUS44 KLIX 271120
TAFMCB
TAF
KMCB 271120Z 2712/2812 18005KT P6SM OVC008
     FM271300 20006KT 6SM SHRA OVC020
     FM271700 20010KT 6SM TSRA OVC030CB
     FM272000 20010KT 6SM SHRA OVC035
     FM280000 21006KT P6SM BKN050=

USA.gov is the U.S. government's official web portal to all federal, state and local government web resources and services.